Time;durP1;ratioP1;P1;durP2;ratioP2;P2;SDS_P1;SDS_P2;PMS_P1;PMS_P2;Temp;Humidity;BMP_temperature;BMP_pressure;BME280_temperature;BME280_humidity;BME280_pressure;Samples;Min_cycle;Max_cycle;Signal;HPM_P1;HPM_P2
2022/08/26 00:01:36;;;;;;;10.80;9.70;;;;;;;18.70;100.00;99112.78;4967301;28;20327;-90
2022/08/26 00:04:03;;;;;;;10.53;9.53;;;;;;;18.67;100.00;99109.78;4949334;28;20349;-90
2022/08/26 00:06:31;;;;;;;10.83;9.83;;;;;;;18.61;100.00;99105.53;4965156;28;20754;-88
2022/08/26 00:08:58;;;;;;;10.90;9.80;;;;;;;18.55;100.00;99112.09;4985179;28;20245;-89
2022/08/26 00:11:25;;;;;;;10.50;9.50;;;;;;;18.52;100.00;99104.50;4958587;28;20230;-89
2022/08/26 00:13:56;;;;;;;10.90;9.90;;;;;;;18.46;100.00;99096.38;4981074;28;20296;-89
2022/08/26 00:16:25;;;;;;;10.40;9.50;;;;;;;18.37;100.00;99092.66;4952899;28;20626;-89
2022/08/26 00:18:52;;;;;;;10.57;9.53;;;;;;;18.30;100.00;99094.88;4963239;28;20247;-87
2022/08/26 00:21:19;;;;;;;10.90;9.80;;;;;;;18.24;100.00;99090.59;4951995;28;20294;-89
2022/08/26 00:23:47;;;;;;;10.17;9.37;;;;;;;18.22;100.00;99094.69;4950364;28;20234;-88
2022/08/26 00:26:13;;;;;;;10.03;9.23;;;;;;;18.18;100.00;99099.84;4964544;28;20321;-88
2022/08/26 00:28:40;;;;;;;10.73;9.63;;;;;;;18.13;100.00;99093.66;4948656;28;20249;-89
2022/08/26 00:31:07;;;;;;;10.60;8.93;;;;;;;18.10;100.00;99091.53;5002902;28;20303;-89
2022/08/26 00:33:38;;;;;;;10.87;9.83;;;;;;;18.04;100.00;99098.88;4984919;28;20232;-89
2022/08/26 00:36:05;;;;;;;11.97;9.67;;;;;;;17.97;100.00;99092.94;4948373;28;20488;-88
2022/08/26 00:38:33;;;;;;;10.87;9.77;;;;;;;17.93;100.00;99092.69;4966402;28;20261;-88
2022/08/26 00:41:04;;;;;;;10.00;9.13;;;;;;;17.92;100.00;99098.38;4947230;28;20258;-87
2022/08/26 00:43:34;;;;;;;10.60;9.70;;;;;;;17.87;100.00;99101.94;4978318;28;20232;-89
2022/08/26 00:46:16;;;;;;;11.00;9.97;;;;;;;17.78;100.00;99092.78;4992655;28;20232;-89
2022/08/26 00:48:46;;;;;;;10.93;9.80;;;;;;;17.77;100.00;99091.19;4977811;28;20260;-87
2022/08/26 00:51:18;;;;;;;10.63;9.53;;;;;;;17.78;100.00;99091.97;4980935;28;20280;-89
2022/08/26 00:53:51;;;;;;;10.83;9.73;;;;;;;17.76;100.00;99094.16;4948690;28;20308;-89
2022/08/26 00:56:26;;;;;;;12.00;10.00;;;;;;;17.76;100.00;99099.56;4975613;28;20263;-90
2022/08/26 00:58:55;;;;;;;11.33;10.33;;;;;;;17.62;100.00;99088.53;4980001;28;20247;-90
2022/08/26 01:01:22;;;;;;;11.50;10.03;;;;;;;17.50;100.00;99094.22;4961494;28;20240;-93
2022/08/26 01:03:48;;;;;;;10.67;9.77;;;;;;;17.51;100.00;99095.03;4978576;28;20294;-91
2022/08/26 01:06:15;;;;;;;11.27;10.03;;;;;;;17.51;100.00;99095.03;4950384;28;20260;-91
2022/08/26 01:08:42;;;;;;;11.17;10.07;;;;;;;17.50;100.00;99091.53;4944896;28;20699;-91
2022/08/26 01:11:10;;;;;;;11.70;10.60;;;;;;;17.51;100.00;99081.50;4958068;28;20351;-91
2022/08/26 01:13:37;;;;;;;10.63;9.53;;;;;;;17.50;100.00;99088.00;4960047;28;20238;-91
2022/08/26 01:16:07;;;;;;;10.77;9.70;;;;;;;17.48;100.00;99088.28;4958755;28;20250;-91
2022/08/26 01:18:34;;;;;;;10.80;9.87;;;;;;;17.51;100.00;99090.44;4976491;28;20246;-93
2022/08/26 01:21:26;;;;;;;11.37;10.27;;;;;;;17.50;100.00;99086.09;4959343;28;20244;-93
2022/08/26 01:23:55;;;;;;;10.70;9.67;;;;;;;17.52;100.00;99088.53;4961870;28;20326;-93
2022/08/26 01:26:31;;;;;;;10.73;9.83;;;;;;;17.51;100.00;99093.16;4959064;28;20236;-91
2022/08/26 01:28:59;;;;;;;11.23;10.23;;;;;;;17.50;100.00;99093.41;4979683;28;20235;-90
2022/08/26 01:31:30;;;;;;;10.53;9.70;;;;;;;17.49;100.00;99086.41;4961067;28;20522;-91
2022/08/26 01:34:03;;;;;;;9.97;9.07;;;;;;;17.49;100.00;99089.94;4960764;28;20232;-91
2022/08/26 01:36:30;;;;;;;10.67;9.77;;;;;;;17.48;100.00;99093.72;4959216;28;20684;-90
2022/08/26 01:38:56;;;;;;;10.70;9.70;;;;;;;17.49;100.00;99081.00;4952626;28;20684;-88
2022/08/26 01:41:24;;;;;;;11.57;10.47;;;;;;;17.51;100.00;99086.91;4959042;28;20811;-89
2022/08/26 01:43:55;;;;;;;11.07;10.07;;;;;;;17.48;100.00;99085.59;4945470;28;20342;-89
2022/08/26 01:46:23;;;;;;;10.73;9.77;;;;;;;17.47;100.00;99089.38;4973745;28;20267;-90
2022/08/26 01:48:52;;;;;;;11.47;10.47;;;;;;;17.47;100.00;99092.09;4948211;28;20237;-89
2022/08/26 01:51:21;;;;;;;10.87;9.90;;;;;;;17.45;100.00;99093.47;4977942;28;20236;-90
2022/08/26 01:53:48;;;;;;;10.50;9.60;;;;;;;17.43;100.00;99084.78;4960339;28;20323;-92
2022/08/26 01:56:15;;;;;;;10.67;9.67;;;;;;;17.37;100.00;99092.13;4978906;28;20299;-93
2022/08/26 01:58:45;;;;;;;11.60;10.50;;;;;;;17.36;100.00;99095.91;4961890;28;20264;-90
2022/08/26 02:01:12;;;;;;;10.83;9.90;;;;;;;17.36;100.00;99087.78;4960410;28;20344;-89
2022/08/26 02:03:50;;;;;;;11.03;10.03;;;;;;;17.38;100.00;99080.22;4993434;28;20228;-88
2022/08/26 02:06:18;;;;;;;11.20;10.20;;;;;;;17.39;100.00;99087.25;4960054;28;20246;-88
2022/08/26 02:08:51;;;;;;;11.10;10.10;;;;;;;17.38;100.00;99088.34;4976394;28;20272;-88
2022/08/26 02:11:19;;;;;;;10.70;9.77;;;;;;;17.39;100.00;99094.56;4961228;28;20236;-88
2022/08/26 02:14:00;;;;;;;11.77;10.10;;;;;;;17.36;100.00;99081.56;4961194;28;20742;-89
2022/08/26 02:16:33;;;;;;;10.80;9.70;;;;;;;17.36;100.00;99087.78;4959544;28;20749;-88
2022/08/26 02:19:03;;;;;;;10.70;9.60;;;;;;;17.33;100.00;99082.94;4958547;28;20242;-88
2022/08/26 02:21:29;;;;;;;10.70;9.67;;;;;;;17.32;100.00;99086.72;4963279;28;20344;-88
2022/08/26 02:24:09;;;;;;;11.83;10.33;;;;;;;17.30;100.00;99085.41;4960339;28;20240;-89
2022/08/26 02:26:38;;;;;;;10.20;9.30;;;;;;;17.28;100.00;99087.56;4958406;28;20274;-91
2022/08/26 02:29:09;;;;;;;10.97;9.90;;;;;;;17.25;100.00;99078.09;4963830;28;20330;-91
2022/08/26 02:31:35;;;;;;;11.27;10.13;;;;;;;17.23;100.00;99080.25;4957870;28;20229;-91
2022/08/26 02:34:11;;;;;;;10.83;9.83;;;;;;;17.22;100.00;99084.03;4975532;28;20224;-90
2022/08/26 02:36:38;;;;;;;11.27;10.23;;;;;;;17.23;100.00;99074.03;4974038;28;20238;-91
2022/08/26 02:39:06;;;;;;;12.27;11.07;;;;;;;17.25;100.00;99071.88;4960562;28;20286;-91
2022/08/26 02:41:33;;;;;;;11.87;10.77;;;;;;;17.24;100.00;99070.25;4958589;28;20228;-91
2022/08/26 02:43:59;;;;;;;11.40;10.40;;;;;;;17.20;100.00;99067.28;4958912;28;20235;-93
2022/08/26 02:46:26;;;;;;;12.40;11.20;;;;;;;17.19;100.00;99071.06;4962721;28;20227;-92
2022/08/26 02:48:56;;;;;;;11.43;10.33;;;;;;;17.17;100.00;99060.50;4991163;28;20252;-93
2022/08/26 02:51:23;;;;;;;11.97;10.77;;;;;;;17.13;100.00;99064.03;4942960;28;20240;-91
2022/08/26 02:53:50;;;;;;;11.70;10.50;;;;;;;17.10;100.00;99065.41;4947138;28;20319;-92
2022/08/26 02:56:16;;;;;;;11.33;10.33;;;;;;;17.08;100.00;99066.75;4941732;28;20322;-91
2022/08/26 02:58:43;;;;;;;10.97;10.00;;;;;;;17.07;100.00;99070.59;4945679;28;20231;-91
2022/08/26 03:01:28;;;;;;;11.23;10.23;;;;;;;17.03;100.00;99069.50;4944197;28;20597;-93
2022/08/26 03:03:56;;;;;;;11.50;10.40;;;;;;;17.01;100.00;99068.97;4959862;28;20272;-92
2022/08/26 03:06:23;;;;;;;11.37;10.37;;;;;;;17.00;100.00;99064.63;4945557;28;20755;-91
2022/08/26 03:08:51;;;;;;;11.50;10.50;;;;;;;16.99;100.00;99063.81;4959070;28;20232;-91
2022/08/26 03:11:18;;;;;;;11.97;10.87;;;;;;;16.99;100.00;99063.81;4960113;28;20748;-91
2022/08/26 03:13:45;;;;;;;12.67;11.40;;;;;;;17.00;100.00;99060.03;4974562;28;20768;-90
2022/08/26 03:16:12;;;;;;;12.00;11.00;;;;;;;16.96;100.00;99061.66;4975622;28;20249;-90
2022/08/26 03:18:39;;;;;;;13.03;11.73;;;;;;;16.92;100.00;99057.91;4975643;28;20237;-90
2022/08/26 03:21:09;;;;;;;11.43;10.37;;;;;;;16.91;100.00;99061.69;4959545;28;20266;-90
2022/08/26 03:23:37;;;;;;;12.03;10.83;;;;;;;16.89;100.00;99055.72;4958282;28;20235;-91
2022/08/26 03:26:05;;;;;;;12.17;10.97;;;;;;;16.89;100.00;99058.44;4959491;28;20232;-92
2022/08/26 03:28:32;;;;;;;12.20;11.07;;;;;;;16.89;100.00;99055.72;4978379;28;20290;-92
2022/08/26 03:31:01;;;;;;;11.80;10.73;;;;;;;16.91;100.00;99060.88;4975210;28;20261;-93
2022/08/26 03:33:27;;;;;;;11.93;10.87;;;;;;;16.90;100.00;99053.84;4961310;28;20229;-90
2022/08/26 03:35:54;;;;;;;11.07;10.10;;;;;;;16.88;100.00;99056.84;4959589;28;20287;-91
2022/08/26 03:38:24;;;;;;;11.90;10.70;;;;;;;16.89;100.00;99061.13;4945079;28;20286;-91
2022/08/26 03:40:51;;;;;;;11.67;10.57;;;;;;;16.87;100.00;99060.63;4962042;28;20289;-90
2022/08/26 03:43:18;;;;;;;12.10;10.90;;;;;;;16.87;100.00;99059.81;4977565;28;20533;-91
2022/08/26 03:45:45;;;;;;;11.93;10.83;;;;;;;16.78;100.00;99058.75;4964606;28;20231;-89
2022/08/26 03:48:12;;;;;;;11.93;10.93;;;;;;;16.69;100.00;99058.50;4978641;28;20228;-91
2022/08/26 03:50:38;;;;;;;11.60;10.50;;;;;;;16.58;100.00;99056.88;4953851;28;20714;-90
2022/08/26 03:53:05;;;;;;;11.90;10.70;;;;;;;16.58;100.00;99060.38;4981988;28;20235;-91
2022/08/26 03:55:39;;;;;;;12.10;10.90;;;;;;;16.58;100.00;99067.69;4967671;28;20239;-90
2022/08/26 03:58:06;;;;;;;11.80;10.80;;;;;;;16.59;100.00;99064.72;4964927;28;20258;-91
2022/08/26 04:00:32;;;;;;;12.20;10.93;;;;;;;16.54;100.00;99064.69;4980656;28;20334;-91
2022/08/26 04:02:59;;;;;;;12.40;11.20;;;;;;;16.53;100.00;99054.94;4945118;28;20243;-91
2022/08/26 04:05:27;;;;;;;12.27;11.17;;;;;;;16.53;100.00;99059.53;4962844;28;20236;-90
2022/08/26 04:07:53;;;;;;;12.53;11.50;;;;;;;16.53;100.00;99057.66;4978320;28;20230;-91
2022/08/26 04:10:23;;;;;;;12.73;11.60;;;;;;;16.52;100.00;99052.50;4977671;28;20231;-91
2022/08/26 04:12:55;;;;;;;12.50;11.33;;;;;;;16.53;100.00;99049.53;4950558;28;20618;-91
2022/08/26 04:15:24;;;;;;;12.53;11.43;;;;;;;16.58;100.00;99046.88;4949804;28;20322;-91
2022/08/26 04:17:51;;;;;;;12.67;11.50;;;;;;;16.61;100.00;99051.72;4965349;28;20725;-91
2022/08/26 04:20:18;;;;;;;12.83;11.63;;;;;;;16.65;100.00;99052.81;4978107;28;20322;-90
2022/08/26 04:22:45;;;;;;;12.80;11.50;;;;;;;16.62;100.00;99047.13;4977645;28;20287;-89
2022/08/26 04:25:12;;;;;;;11.97;10.77;;;;;;;16.66;100.00;99056.31;4951056;28;20231;-89
2022/08/26 04:27:39;;;;;;;11.50;10.57;;;;;;;16.72;100.00;99055.22;4963944;28;20321;-87
2022/08/26 04:30:07;;;;;;;12.00;11.00;;;;;;;16.81;100.00;99050.88;4964040;28;20243;-89
2022/08/26 04:32:35;;;;;;;12.40;11.27;;;;;;;16.84;100.00;99053.06;4964154;28;20246;-89
2022/08/26 04:35:02;;;;;;;12.43;11.33;;;;;;;16.88;100.00;99054.13;5002269;28;20243;-89
2022/08/26 04:37:30;;;;;;;12.07;11.03;;;;;;;16.95;100.00;99059.22;4963447;28;20244;-88
2022/08/26 04:39:58;;;;;;;12.53;11.43;;;;;;;17.02;100.00;99068.69;4967926;28;20235;-89
2022/08/26 04:42:24;;;;;;;11.93;10.60;;;;;;;17.11;100.00;99068.94;4977698;28;20273;-89
2022/08/26 04:44:51;;;;;;;12.20;10.93;;;;;;;17.20;100.00;99071.88;4994281;28;20255;-89
2022/08/26 04:47:18;;;;;;;12.93;10.77;;;;;;;17.26;100.00;99068.91;4959245;28;20311;-89
2022/08/26 04:49:45;;;;;;;11.77;10.80;;;;;;;17.36;100.00;99066.13;4974165;28;20252;-89
2022/08/26 04:52:11;;;;;;;12.40;10.57;;;;;;;17.52;100.00;99061.47;4952099;28;20305;-89
2022/08/26 04:54:38;;;;;;;11.23;10.13;;;;;;;17.65;100.00;99060.88;4979927;28;20321;-88
2022/08/26 04:57:07;;;;;;;11.87;10.67;;;;;;;17.78;100.00;99062.16;4976660;28;20254;-89
2022/08/26 04:59:34;;;;;;;11.83;10.70;;;;;;;17.83;100.00;99068.34;4976291;28;20236;-89
2022/08/26 05:02:05;;;;;;;11.93;10.93;;;;;;;17.92;100.00;99063.16;4996964;28;20711;-89
2022/08/26 05:04:32;;;;;;;11.70;10.60;;;;;;;18.07;100.00;99060.34;4960634;28;20239;-89
2022/08/26 05:07:00;;;;;;;12.00;10.77;;;;;;;18.20;100.00;99075.16;4964256;28;20232;-89
2022/08/26 05:09:28;;;;;;;12.13;10.93;;;;;;;18.27;100.00;99073.75;4949424;28;20235;-89
2022/08/26 05:11:56;;;;;;;11.60;10.60;;;;;;;18.41;100.00;99073.91;4945295;28;20233;-88
2022/08/26 05:14:22;;;;;;;11.67;10.57;;;;;;;18.39;100.00;99073.38;4962168;28;20244;-89
2022/08/26 05:16:49;;;;;;;11.27;10.27;;;;;;;18.59;100.00;99072.44;4947752;28;20232;-89
2022/08/26 05:19:16;;;;;;;11.53;10.40;;;;;;;18.84;100.00;99083.88;4948259;28;20747;-88
2022/08/26 05:21:45;;;;;;;11.10;10.00;;;;;;;19.08;100.00;99086.63;4944480;28;20236;-89
2022/08/26 05:24:13;;;;;;;11.47;10.37;;;;;;;19.25;100.00;99083.44;4947793;28;20242;-88
2022/08/26 05:26:39;;;;;;;11.00;10.00;;;;;;;19.43;100.00;99084.56;4946353;28;20247;-88
2022/08/26 05:29:06;;;;;;;11.13;9.90;;;;;;;19.60;100.00;99082.19;4947438;28;20304;-88
2022/08/26 05:31:34;;;;;;;9.93;8.93;;;;;;;19.76;100.00;99083.63;4963244;28;20240;-89
2022/08/26 05:34:03;;;;;;;10.67;9.63;;;;;;;19.96;100.00;99082.53;4959430;28;20304;-89
2022/08/26 05:36:32;;;;;;;9.33;8.53;;;;;;;20.14;100.00;99095.34;4949444;28;20246;-88
2022/08/26 05:39:02;;;;;;;9.43;8.50;;;;;;;20.30;100.00;99091.28;4977107;28;20346;-88
2022/08/26 05:41:33;;;;;;;9.43;8.57;;;;;;;20.45;100.00;99090.25;4961568;28;20329;-89
2022/08/26 05:44:06;;;;;;;9.63;8.53;;;;;;;20.57;100.00;99083.25;4960590;28;20237;-87
2022/08/26 05:46:35;;;;;;;8.60;7.90;;;;;;;20.71;100.00;99080.56;4947231;28;20236;-87
2022/08/26 05:49:04;;;;;;;9.03;8.23;;;;;;;20.87;100.00;99078.34;4991721;28;20239;-88
2022/08/26 05:51:31;;;;;;;9.23;8.30;;;;;;;20.95;100.00;99083.91;4954905;28;20305;-88
2022/08/26 05:54:01;;;;;;;9.33;8.43;;;;;;;21.04;100.00;99084.06;4960504;28;20234;-88
2022/08/26 05:56:29;;;;;;;10.20;9.20;;;;;;;21.11;100.00;99084.44;4972286;28;20243;-89
2022/08/26 05:58:56;;;;;;;11.20;10.10;;;;;;;21.22;100.00;99082.38;4948456;28;20309;-88
2022/08/26 06:01:26;;;;;;;10.63;9.33;;;;;;;21.28;100.00;99083.88;4958702;28;20230;-88
2022/08/26 06:03:56;;;;;;;9.70;8.70;;;;;;;21.42;100.00;99080.03;4960146;28;20228;-89
2022/08/26 06:06:32;;;;;;;10.10;9.00;;;;;;;21.30;100.00;99087.91;4976260;28;20266;-88
2022/08/26 06:09:02;;;;;;;10.20;9.20;;;;;;;21.60;100.00;99080.25;4958674;28;20236;-88
2022/08/26 06:11:31;;;;;;;10.07;9.18;;;;;;;21.77;100.00;99083.13;4942680;28;20306;-88
2022/08/26 06:14:00;;;;;;;10.23;9.13;;;;;;;22.00;100.00;99073.09;4959482;28;20709;-88
2022/08/26 06:16:31;;;;;;;9.77;8.87;;;;;;;22.16;100.00;99082.56;4956323;28;20235;-87
2022/08/26 06:18:57;;;;;;;12.45;9.05;;;;;;;22.32;100.00;99089.25;4958076;28;20706;-87
2022/08/26 06:21:37;;;;;;;9.02;8.23;;;;;;;22.60;100.00;99087.22;4988616;28;20239;-86
2022/08/26 06:27:02;;;;;;;9.85;8.98;;;;;;;23.10;100.00;99076.91;4966475;28;20227;-87
2022/08/26 06:29:32;;;;;;;10.02;8.80;;;;;;;23.41;100.00;99088.63;4948618;28;20278;-85
2022/08/26 06:32:00;;;;;;;9.90;9.02;;;;;;;23.63;100.00;99074.88;4986648;28;20298;-83
2022/08/26 06:34:30;;;;;;;9.63;8.65;;;;;;;23.86;100.00;99074.75;4964947;28;20676;-83
2022/08/26 06:37:00;;;;;;;9.48;8.48;;;;;;;24.08;100.00;99069.13;4958302;28;20242;-83
2022/08/26 06:39:28;;;;;;;8.90;8.00;;;;;;;24.31;100.00;99078.03;4961662;28;20239;-83
2022/08/26 06:41:58;;;;;;;9.63;8.63;;;;;;;24.60;100.00;99072.66;5004085;28;20644;-81
2022/08/26 06:44:25;;;;;;;9.60;8.60;;;;;;;24.83;98.51;99073.25;4975531;28;20241;-84
2022/08/26 06:46:52;;;;;;;9.43;8.52;;;;;;;25.09;97.43;99070.47;4986975;28;20317;-85
2022/08/26 06:49:19;;;;;;;9.18;8.23;;;;;;;25.31;94.58;99068.25;4980176;28;20243;-84
2022/08/26 06:51:55;;;;;;;11.20;8.40;;;;;;;25.63;92.53;99075.06;4997665;28;20230;-84
2022/08/26 06:54:21;;;;;;;9.88;8.32;;;;;;;25.39;90.77;99064.66;4978362;28;20325;-85
2022/08/26 06:56:48;;;;;;;9.02;8.23;;;;;;;25.61;94.19;99073.78;4977823;28;20235;-84
2022/08/26 06:59:15;;;;;;;9.35;8.45;;;;;;;25.92;89.72;99078.91;4996884;28;20329;-85
2022/08/26 07:01:45;;;;;;;8.75;7.97;;;;;;;26.21;85.98;99071.44;4996343;28;20286;-85
2022/08/26 07:04:14;;;;;;;8.80;8.10;;;;;;;26.39;82.30;99074.84;4998745;28;20255;-85
2022/08/26 07:06:49;;;;;;;8.98;8.00;;;;;;;26.45;81.51;99067.19;4958887;28;20249;-84
2022/08/26 07:09:20;;;;;;;8.63;7.93;;;;;;;26.62;80.61;99062.31;4967191;28;20257;-82
2022/08/26 07:11:47;;;;;;;9.15;8.27;;;;;;;26.45;82.26;99062.50;4981236;28;20697;-85
2022/08/26 07:14:15;;;;;;;8.25;7.47;;;;;;;26.72;79.58;99061.09;4995103;28;20241;-85
2022/08/26 07:16:46;;;;;;;9.55;7.93;;;;;;;26.71;76.20;99063.03;4976230;28;20336;-85
2022/08/26 07:19:12;;;;;;;8.68;7.78;;;;;;;26.84;76.54;99063.06;4985231;28;20231;-84
2022/08/26 07:21:42;;;;;;;8.02;7.07;;;;;;;26.92;75.70;99057.47;4983847;28;20238;-85
2022/08/26 07:24:09;;;;;;;9.32;7.30;;;;;;;27.01;76.62;99060.97;4980168;28;20289;-85
2022/08/26 07:26:37;;;;;;;8.10;7.40;;;;;;;27.26;75.80;99055.47;4993376;28;20255;-84
2022/08/26 07:29:08;;;;;;;8.45;7.65;;;;;;;27.39;74.32;99062.59;4980291;28;20266;-84
2022/08/26 07:31:36;;;;;;;9.80;7.65;;;;;;;27.55;73.18;99053.31;4981054;28;20315;-84
2022/08/26 07:34:08;;;;;;;8.20;7.40;;;;;;;27.55;71.40;99058.81;4981766;28;20235;-84
2022/08/26 07:36:35;;;;;;;7.93;7.20;;;;;;;27.66;70.71;99056.41;4975903;28;20232;-84
2022/08/26 07:39:02;;;;;;;8.85;7.95;;;;;;;27.66;69.84;99061.91;4979542;28;20281;-84
2022/08/26 07:41:28;;;;;;;9.73;7.38;;;;;;;27.73;68.73;99053.06;4997356;28;20505;-83
2022/08/26 07:43:55;;;;;;;8.32;7.47;;;;;;;27.81;67.86;99049.38;4996945;28;20255;-84
2022/08/26 07:46:22;;;;;;;7.90;7.03;;;;;;;27.81;64.64;99055.66;4965174;28;20227;-86
2022/08/26 07:48:53;;;;;;;7.53;6.78;;;;;;;27.91;63.75;99052.44;4980142;28;20231;-85
2022/08/26 07:51:21;;;;;;;8.07;7.35;;;;;;;27.80;64.64;99048.59;4980135;28;20687;-85
2022/08/26 07:53:48;;;;;;;8.02;7.13;;;;;;;27.80;64.74;99051.34;4965842;28;20247;-86
2022/08/26 07:56:19;;;;;;;8.40;7.55;;;;;;;27.89;63.94;99057.50;4995434;28;20274;-85
2022/08/26 07:58:46;;;;;;;8.43;7.55;;;;;;;27.99;64.98;99053.47;4977889;28;20316;-85
2022/08/26 08:01:18;;;;;;;7.38;6.78;;;;;;;28.02;65.94;99045.31;4990309;28;20239;-86
2022/08/26 08:03:45;;;;;;;8.10;7.30;;;;;;;27.94;66.64;99053.72;4997497;28;20621;-85
2022/08/26 08:06:21;;;;;;;8.10;7.30;;;;;;;27.99;66.23;99047.97;4961293;28;20259;-85
2022/08/26 08:08:48;;;;;;;7.53;6.93;;;;;;;28.06;65.64;99052.88;4983752;28;20290;-85
2022/08/26 08:11:19;;;;;;;9.32;7.22;;;;;;;27.90;66.62;99045.31;5000314;28;20728;-85
2022/08/26 08:13:47;;;;;;;8.63;7.40;;;;;;;27.99;67.04;99036.94;4964142;28;20306;-85
2022/08/26 08:16:14;;;;;;;8.23;7.40;;;;;;;28.02;66.56;99041.75;4965495;28;20239;-85
2022/08/26 08:18:41;;;;;;;7.53;6.82;;;;;;;28.22;67.02;99040.81;4979701;28;20232;-85
2022/08/26 08:21:07;;;;;;;7.78;6.97;;;;;;;28.39;63.63;99034.97;4979217;28;20242;-85
2022/08/26 08:23:47;;;;;;;7.53;6.82;;;;;;;28.31;63.07;99038.69;4978151;28;20262;-85
2022/08/26 08:26:14;;;;;;;7.60;6.78;;;;;;;28.65;57.91;99033.72;4962619;28;20440;-85
2022/08/26 08:28:42;;;;;;;8.85;7.15;;;;;;;28.93;57.78;99033.69;4975012;28;20258;-85
2022/08/26 08:31:27;;;;;;;7.50;6.78;;;;;;;29.26;58.66;99031.34;4983220;28;20265;-85
2022/08/26 08:34:14;;;;;;;7.45;6.75;;;;;;;29.45;57.21;99033.38;4964019;28;20261;-85
2022/08/26 08:36:41;;;;;;;8.95;7.18;;;;;;;29.69;55.88;99035.91;4995152;28;20235;-86
2022/08/26 08:39:08;;;;;;;7.13;6.43;;;;;;;29.78;55.08;99031.00;4982331;28;20333;-86
2022/08/26 08:41:53;;;;;;;8.85;6.60;;;;;;;29.83;54.39;99029.91;4941552;28;20311;-85
2022/08/26 08:44:22;;;;;;;10.32;7.32;;;;;;;29.69;56.01;99027.63;4993121;28;20231;-86
2022/08/26 08:47:03;;;;;;;8.23;6.85;;;;;;;29.23;57.28;99029.31;4953071;28;20239;-84
2022/08/26 08:49:32;;;;;;;9.95;7.20;;;;;;;29.57;55.44;99025.00;4961304;28;20239;-85
2022/08/26 08:52:13;;;;;;;9.82;6.70;;;;;;;28.79;56.97;99023.88;4979157;28;20233;-85
2022/08/26 08:54:40;;;;;;;7.03;6.53;;;;;;;29.19;57.12;99017.38;4975827;28;20243;-85
2022/08/26 08:57:10;;;;;;;8.68;6.45;;;;;;;29.00;57.73;99015.34;4978534;28;20223;-85
2022/08/26 08:59:46;;;;;;;8.10;7.22;;;;;;;29.06;58.92;99021.41;4977573;28;20239;-85
2022/08/26 09:02:52;;;;;;;6.95;6.38;;;;;;;29.63;56.52;99020.81;4976775;28;20736;-85
2022/08/26 09:05:30;;;;;;;8.25;7.57;;;;;;;28.96;55.91;99013.66;4916094;28;20325;-85
2022/08/26 09:08:15;;;;;;;7.50;6.80;;;;;;;28.91;58.43;99011.16;4976265;28;20234;-85
2022/08/26 09:10:49;;;;;;;7.40;6.75;;;;;;;28.96;59.39;99011.72;4979372;28;20250;-85
2022/08/26 09:13:19;;;;;;;9.13;6.90;;;;;;;29.25;58.44;99005.72;4977766;28;20718;-84
2022/08/26 09:16:06;;;;;;;7.43;6.72;;;;;;;29.48;57.48;99005.91;4991862;28;20257;-86
2022/08/26 09:18:54;;;;;;;7.72;6.50;;;;;;;29.77;56.94;99009.28;4973095;28;20230;-85
2022/08/26 09:21:22;;;;;;;7.60;6.90;;;;;;;29.77;52.64;99007.31;4980533;28;21017;-85
2022/08/26 09:23:54;;;;;;;9.23;6.95;;;;;;;29.76;53.18;99011.25;4998694;28;20236;-85
2022/08/26 09:26:44;;;;;;;8.20;6.68;;;;;;;29.90;51.70;99005.25;4974953;28;20242;-85
2022/08/26 09:29:26;;;;;;;7.65;6.95;;;;;;;29.58;58.25;99002.56;4975147;28;20682;-85
2022/08/26 09:32:18;;;;;;;7.93;6.47;;;;;;;29.74;56.21;99002.50;4986877;28;20223;-85
2022/08/26 09:35:09;;;;;;;7.72;7.03;;;;;;;29.95;53.26;99007.72;4975766;28;20242;-84
2022/08/26 09:37:46;;;;;;;6.72;6.10;;;;;;;30.18;51.56;98998.34;4956839;28;20235;-86
2022/08/26 09:40:31;;;;;;;9.00;6.55;;;;;;;30.38;50.53;98996.34;4956702;28;20233;-85
2022/08/26 09:43:03;;;;;;;9.43;6.72;;;;;;;30.57;50.56;98996.34;4955711;28;20285;-85
2022/08/26 09:45:32;;;;;;;8.75;6.85;;;;;;;30.77;50.69;98991.56;4954953;28;20228;-85
2022/08/26 09:48:00;;;;;;;7.50;6.55;;;;;;;30.95;48.31;98989.09;4956119;28;20303;-84
2022/08/26 09:50:37;;;;;;;6.93;6.43;;;;;;;31.22;48.57;98987.19;4955660;28;20233;-84
2022/08/26 09:53:06;;;;;;;7.00;6.03;;;;;;;31.44;48.70;98983.59;4966425;28;20247;-85
2022/08/26 09:55:40;;;;;;;7.20;6.47;;;;;;;31.28;48.48;98983.72;4959946;28;20236;-85
2022/08/26 09:58:12;;;;;;;7.82;5.97;;;;;;;31.03;47.78;98982.53;4942284;28;20459;-85
2022/08/26 10:00:42;;;;;;;9.80;6.72;;;;;;;31.32;45.98;98981.00;4954849;28;20239;-85
2022/08/26 10:03:10;;;;;;;6.63;6.00;;;;;;;31.59;45.99;98990.16;4954815;28;20386;-85
2022/08/26 10:05:55;;;;;;;6.28;5.75;;;;;;;31.61;44.58;98982.25;4964708;28;20263;-86
2022/08/26 10:08:27;;;;;;;7.82;6.18;;;;;;;31.34;46.33;98984.22;4972368;28;20235;-85
2022/08/26 10:10:56;;;;;;;6.85;6.15;;;;;;;31.27;47.48;98971.06;4942858;28;20235;-85
2022/08/26 10:13:31;;;;;;;10.25;5.97;;;;;;;31.67;45.80;98984.34;4954507;28;21038;-85
2022/08/26 10:16:05;;;;;;;8.23;5.80;;;;;;;32.13;44.10;98971.09;4944310;28;20227;-85
2022/08/26 10:18:40;;;;;;;6.78;5.55;;;;;;;32.38;44.93;98971.38;4960412;28;20236;-84
2022/08/26 10:21:14;;;;;;;9.48;5.93;;;;;;;32.57;43.29;98970.34;4954450;28;20707;-85
2022/08/26 10:23:47;;;;;;;7.80;5.68;;;;;;;32.94;42.78;98970.31;4955287;28;20243;-85
2022/08/26 10:26:31;;;;;;;7.88;5.60;;;;;;;33.17;41.12;98965.38;4960587;28;20229;-85
2022/08/26 10:29:05;;;;;;;8.07;5.97;;;;;;;33.30;40.55;98963.88;4955433;28;20323;-85
2022/08/26 10:31:37;;;;;;;7.03;5.70;;;;;;;33.35;40.47;98963.50;4945112;28;20275;-85
2022/08/26 10:34:07;;;;;;;9.02;5.63;;;;;;;33.24;40.76;98956.28;4942432;28;20248;-84
2022/08/26 10:36:48;;;;;;;7.82;5.43;;;;;;;33.50;40.40;98953.28;4939979;28;20235;-85
2022/08/26 10:39:59;;;;;;;8.20;5.60;;;;;;;33.58;38.78;98952.94;4968250;28;20713;-84
2022/08/26 10:42:36;;;;;;;8.27;5.95;;;;;;;33.74;39.29;98944.28;4974698;28;20243;-85
2022/08/26 10:45:15;;;;;;;8.32;4.97;;;;;;;33.76;38.65;98943.91;4978458;28;20245;-85
2022/08/26 10:47:51;;;;;;;6.82;5.28;;;;;;;33.79;38.67;98934.78;4974642;28;20740;-85
2022/08/26 10:50:19;;;;;;;9.32;5.45;;;;;;;34.08;38.64;98935.69;4994523;28;20226;-84
2022/08/26 10:53:10;;;;;;;7.47;5.30;;;;;;;34.20;38.27;98930.59;4961389;28;20232;-85
2022/08/26 10:55:58;;;;;;;8.68;5.63;;;;;;;34.36;38.30;98927.44;4995759;28;20238;-84
2022/08/26 10:58:57;;;;;;;11.45;5.00;;;;;;;34.58;36.69;98926.25;4977556;28;20243;-85
2022/08/26 11:01:44;;;;;;;7.00;5.20;;;;;;;34.67;35.53;98925.94;4978388;28;20749;-83
2022/08/26 11:04:34;;;;;;;9.30;5.18;;;;;;;34.84;36.19;98925.13;4995383;28;20246;-85
2022/08/26 11:07:30;;;;;;;7.85;5.10;;;;;;;34.95;36.54;98923.09;4992553;28;20651;-85
2022/08/26 11:10:14;;;;;;;8.15;5.07;;;;;;;35.02;36.41;98911.19;4996759;28;20289;-85
2022/08/26 11:12:40;;;;;;;8.95;5.10;;;;;;;34.79;36.16;98912.41;4974539;28;20386;-85
2022/08/26 11:15:18;;;;;;;7.30;4.43;;;;;;;34.90;36.53;98915.94;4982567;28;20229;-84
2022/08/26 11:17:50;;;;;;;8.57;5.22;;;;;;;34.43;37.02;98908.00;4977016;28;20227;-85
2022/08/26 11:20:22;;;;;;;12.20;5.25;;;;;;;34.25;37.00;98907.94;4976376;28;20346;-84
2022/08/26 11:22:51;;;;;;;6.38;4.88;;;;;;;34.35;38.26;98898.03;4979494;28;20242;-84
2022/08/26 11:25:20;;;;;;;7.18;4.70;;;;;;;34.16;38.01;98899.16;4959978;28;20767;-84
2022/08/26 11:27:55;;;;;;;11.25;4.97;;;;;;;34.20;39.16;98900.03;4951824;28;20267;-85
2022/08/26 11:30:22;;;;;;;6.60;4.70;;;;;;;34.34;38.71;98896.47;4960672;28;20318;-85
2022/08/26 11:32:53;;;;;;;8.02;4.60;;;;;;;34.14;37.53;98890.44;4981548;28;20244;-85
2022/08/26 11:35:19;;;;;;;7.63;4.50;;;;;;;34.22;37.36;98886.50;4980308;28;20254;-85
2022/08/26 11:37:46;;;;;;;8.35;4.97;;;;;;;34.57;36.00;98882.19;4998261;28;20262;-85
2022/08/26 11:40:19;;;;;;;8.43;4.28;;;;;;;34.64;35.43;98882.16;4997894;28;20239;-85
2022/08/26 11:43:10;;;;;;;7.00;4.68;;;;;;;34.90;35.39;98877.00;4981655;28;20207;-84